createdAt,value
2022-11-18T00:01:11.400Z,6.15
2022-11-18T00:03:38.816Z,9.15
2022-11-18T00:06:06.516Z,5.55
2022-11-18T00:08:34.068Z,6.97
2022-11-18T00:11:06.289Z,6.43
2022-11-18T00:13:51.086Z,8.35
2022-11-18T00:16:17.668Z,8.98
2022-11-18T00:18:44.211Z,6.97
2022-11-18T00:21:12.142Z,5.53
2022-11-18T00:23:39.681Z,5.90
2022-11-18T00:26:11.124Z,8.70
2022-11-18T00:28:37.871Z,6.82
2022-11-18T00:31:06.514Z,8.38
2022-11-18T00:33:32.968Z,6.45
2022-11-18T00:35:59.782Z,4.53
2022-11-18T00:38:26.823Z,5.28
2022-11-18T00:41:06.093Z,7.13
2022-11-18T00:43:33.291Z,6.50
2022-11-18T00:45:59.785Z,6.30
2022-11-18T00:48:26.326Z,5.45
2022-11-18T00:51:06.610Z,8.00
2022-11-18T00:53:32.971Z,7.60
2022-11-18T00:55:59.441Z,8.00
2022-11-18T00:58:26.088Z,6.82
2022-11-18T01:00:53.167Z,7.25
2022-11-18T01:03:20.483Z,8.85
2022-11-18T01:05:47.646Z,6.65
2022-11-18T01:08:14.793Z,8.68
2022-11-18T01:10:41.653Z,11.13
2022-11-18T01:13:19.444Z,6.57
2022-11-18T01:15:57.447Z,9.57
2022-11-18T01:18:30.492Z,8.75
2022-11-18T01:21:01.474Z,6.68
2022-11-18T01:23:27.890Z,8.00
2022-11-18T01:25:54.299Z,7.15
2022-11-18T01:28:23.955Z,8.32
2022-11-18T01:30:51.116Z,6.55
2022-11-18T01:33:17.540Z,7.38
2022-11-18T01:35:44.284Z,7.78
2022-11-18T01:38:12.159Z,7.82
2022-11-18T01:40:40.325Z,5.22
2022-11-18T01:43:13.841Z,6.13
2022-11-18T01:45:42.147Z,6.35
2022-11-18T01:48:23.087Z,11.85
2022-11-18T01:50:54.244Z,6.65
2022-11-18T01:53:25.537Z,7.43
2022-11-18T01:55:55.998Z,5.80
2022-11-18T01:58:27.360Z,6.78
2022-11-18T02:00:54.546Z,5.65
2022-11-18T02:03:22.080Z,10.25
2022-11-18T02:05:50.388Z,4.45
2022-11-18T02:08:18.936Z,6.28
2022-11-18T02:10:45.320Z,4.72
2022-11-18T02:13:13.166Z,4.70
2022-11-18T02:15:55.604Z,6.78
2022-11-18T02:18:40.959Z,8.23
2022-11-18T02:21:25.503Z,7.10
2022-11-18T02:24:09.653Z,6.07
2022-11-18T02:26:54.386Z,7.60
2022-11-18T02:29:32.181Z,8.02
2022-11-18T02:32:01.824Z,7.25
2022-11-18T02:34:28.123Z,8.88
2022-11-18T02:37:02.559Z,6.85
2022-11-18T02:39:39.347Z,7.22
2022-11-18T02:42:11.261Z,7.38
2022-11-18T02:44:40.775Z,7.22
2022-11-18T02:47:11.374Z,5.93
2022-11-18T02:49:53.873Z,7.50
2022-11-18T02:52:22.184Z,8.10
2022-11-18T02:54:51.121Z,7.85
2022-11-18T02:57:19.941Z,5.88
2022-11-18T02:59:46.303Z,6.13
2022-11-18T03:02:17.315Z,5.93
2022-11-18T03:04:46.422Z,6.40
2022-11-18T03:07:29.540Z,7.40
2022-11-18T03:09:57.865Z,5.80
2022-11-18T03:12:43.715Z,4.63
2022-11-18T03:15:26.007Z,4.68
2022-11-18T03:18:20.030Z,5.57
2022-11-18T03:21:01.223Z,13.35
2022-11-18T03:23:43.099Z,9.10
2022-11-18T03:26:14.110Z,8.75
2022-11-18T03:28:43.896Z,6.30
2022-11-18T03:31:21.875Z,10.73
2022-11-18T03:34:00.095Z,6.05
2022-11-18T03:36:32.633Z,10.95
2022-11-18T03:39:01.334Z,6.82
2022-11-18T03:41:31.914Z,9.00
2022-11-18T03:44:24.923Z,10.15
2022-11-18T03:47:02.958Z,10.40
2022-11-18T03:49:40.564Z,7.13
2022-11-18T03:52:21.344Z,8.70
2022-11-18T03:54:51.782Z,9.80
2022-11-18T03:57:33.468Z,6.38
2022-11-18T04:00:05.727Z,9.40
2022-11-18T04:02:32.337Z,8.27
2022-11-18T04:05:00.602Z,11.85
2022-11-18T04:07:35.648Z,14.10
2022-11-18T04:10:11.782Z,6.82
2022-11-18T04:12:43.666Z,9.07
2022-11-18T04:15:10.027Z,9.63
2022-11-18T04:17:36.837Z,7.30
2022-11-18T04:20:03.639Z,8.90
2022-11-18T04:22:30.131Z,7.28
2022-11-18T04:24:56.437Z,8.20
2022-11-18T04:27:22.735Z,5.65
2022-11-18T04:29:49.238Z,5.85
2022-11-18T04:32:15.730Z,5.68
2022-11-18T04:34:42.035Z,6.50
2022-11-18T04:37:08.531Z,5.07
2022-11-18T04:39:34.833Z,8.88
2022-11-18T04:42:01.374Z,6.53
2022-11-18T04:44:33.082Z,6.43
2022-11-18T04:47:01.618Z,7.68
2022-11-18T04:51:56.059Z,7.00
2022-11-18T04:54:22.918Z,10.35
2022-11-18T04:56:50.140Z,4.10
2022-11-18T04:59:22.645Z,8.63
2022-11-18T05:01:49.975Z,13.25
2022-11-18T05:04:25.073Z,5.93
2022-11-18T05:06:52.307Z,10.77
2022-11-18T05:09:19.845Z,6.25
2022-11-18T05:12:05.060Z,11.20
2022-11-18T05:14:31.788Z,8.25
2022-11-18T05:17:00.005Z,6.43
2022-11-18T05:19:26.675Z,5.95
2022-11-18T05:21:53.774Z,7.50
2022-11-18T05:24:20.477Z,7.90
2022-11-18T05:26:46.807Z,8.60
2022-11-18T05:29:13.173Z,6.25
2022-11-18T05:31:39.661Z,6.25
2022-11-18T05:34:06.092Z,6.78
2022-11-18T05:36:32.463Z,6.57
2022-11-18T05:38:59.926Z,6.93
2022-11-18T05:41:45.075Z,13.00
2022-11-18T05:44:11.390Z,12.27
2022-11-18T05:46:37.951Z,14.15
2022-11-18T05:49:04.362Z,10.52
2022-11-18T05:51:30.733Z,9.65
2022-11-18T05:53:57.461Z,7.80
2022-11-18T05:56:37.092Z,8.40
2022-11-18T05:59:03.976Z,8.23
2022-11-18T06:01:43.955Z,8.68
2022-11-18T06:04:20.094Z,6.38
2022-11-18T06:06:49.189Z,6.55
2022-11-18T06:09:20.778Z,6.28
2022-11-18T06:11:53.063Z,8.85
2022-11-18T06:14:33.675Z,6.88
2022-11-18T06:17:06.220Z,4.70
2022-11-18T06:19:33.174Z,8.93
2022-11-18T06:22:00.061Z,10.98
2022-11-18T06:24:26.838Z,6.15
2022-11-18T06:26:53.781Z,14.40
2022-11-18T06:29:26.177Z,4.55
2022-11-18T06:31:53.946Z,15.63
2022-11-18T06:34:20.237Z,8.20
2022-11-18T06:36:46.566Z,7.28
2022-11-18T06:39:12.921Z,5.90
2022-11-18T06:41:39.225Z,6.15
2022-11-18T06:44:05.578Z,9.43
2022-11-18T06:46:51.768Z,6.50
2022-11-18T06:49:18.317Z,5.43
2022-11-18T06:51:44.829Z,7.28
2022-11-18T06:54:11.421Z,6.50
2022-11-18T06:56:38.021Z,10.70
2022-11-18T06:59:04.932Z,14.07
2022-11-18T07:01:34.912Z,7.30
2022-11-18T07:04:01.909Z,12.32
2022-11-18T07:06:30.953Z,15.10
2022-11-18T07:08:59.484Z,8.52
2022-11-18T07:13:53.075Z,8.77
2022-11-18T07:16:24.894Z,13.25
2022-11-18T07:18:52.618Z,12.73
2022-11-18T07:21:23.345Z,15.32
2022-11-18T07:23:49.661Z,17.35
2022-11-18T07:26:16.553Z,12.27
2022-11-18T07:28:43.189Z,8.63
2022-11-18T07:31:12.499Z,12.20
2022-11-18T07:33:40.655Z,8.55
2022-11-18T07:36:21.429Z,12.68
2022-11-18T07:38:48.079Z,10.70
2022-11-18T07:41:23.554Z,14.07
2022-11-18T07:43:54.958Z,9.35
2022-11-18T07:46:27.702Z,7.80
2022-11-18T07:48:56.069Z,7.18
2022-11-18T07:51:28.071Z,10.18
2022-11-18T07:53:54.613Z,7.95
2022-11-18T07:56:21.280Z,8.23
2022-11-18T07:58:48.086Z,6.75
2022-11-18T08:01:20.609Z,13.23
2022-11-18T08:03:47.657Z,8.55
2022-11-18T08:06:16.564Z,8.93
2022-11-18T08:08:43.335Z,14.75
2022-11-18T08:11:16.296Z,10.00
2022-11-18T08:13:47.357Z,8.00
2022-11-18T08:16:16.638Z,10.32
2022-11-18T08:18:43.015Z,9.55
2022-11-18T08:21:10.263Z,6.78
2022-11-18T08:23:41.673Z,11.23
2022-11-18T08:26:11.871Z,7.70
2022-11-18T08:28:38.568Z,7.88
2022-11-18T08:31:16.086Z,8.02
2022-11-18T08:33:42.714Z,12.70
2022-11-18T08:36:25.269Z,12.05
2022-11-18T08:38:51.678Z,8.52
2022-11-18T08:41:38.727Z,11.60
2022-11-18T08:44:07.048Z,9.32
2022-11-18T08:46:33.850Z,9.73
2022-11-18T08:49:00.224Z,11.02
2022-11-18T08:51:28.455Z,10.65
2022-11-18T08:53:55.174Z,12.10
2022-11-18T08:56:23.528Z,9.45
2022-11-18T08:58:50.373Z,10.23
2022-11-18T09:01:17.043Z,9.68
2022-11-18T09:03:43.925Z,8.85
2022-11-18T09:06:19.041Z,12.07
2022-11-18T09:08:46.104Z,12.80
2022-11-18T09:11:23.950Z,8.43
2022-11-18T09:16:46.807Z,12.60
2022-11-18T09:22:02.054Z,10.05
2022-11-18T09:24:28.664Z,10.20
2022-11-18T09:26:55.260Z,11.68
2022-11-18T09:29:26.250Z,8.23
2022-11-18T09:31:53.788Z,9.75
2022-11-18T09:34:20.721Z,12.35
2022-11-18T09:36:47.086Z,11.38
2022-11-18T09:39:13.647Z,10.20
2022-11-18T09:41:53.084Z,8.52
2022-11-18T09:44:48.628Z,7.85
2022-11-18T09:47:27.840Z,11.02
2022-11-18T09:49:57.030Z,10.80
2022-11-18T09:52:36.169Z,9.75
2022-11-18T09:55:11.892Z,11.90
2022-11-18T09:57:43.575Z,7.55
2022-11-18T10:00:22.390Z,14.35
2022-11-18T10:02:57.598Z,10.48
2022-11-18T10:05:27.698Z,14.98
2022-11-18T10:08:09.637Z,12.38
2022-11-18T10:10:48.484Z,10.38
2022-11-18T10:13:26.556Z,14.73
2022-11-18T10:16:05.051Z,11.13
2022-11-18T10:21:55.333Z,10.00
2022-11-18T10:24:25.159Z,15.20
2022-11-18T10:26:57.041Z,12.93
2022-11-18T10:29:24.110Z,10.63
2022-11-18T10:32:11.850Z,12.68
2022-11-18T10:34:51.607Z,12.20
2022-11-18T10:38:06.210Z,9.23
2022-11-18T10:40:26.238Z,11.65
2022-11-18T10:42:52.625Z,10.85
2022-11-18T10:45:32.496Z,12.85
2022-11-18T10:48:27.958Z,12.10
2022-11-18T10:50:56.059Z,14.00
2022-11-18T10:53:33.327Z,18.98
2022-11-18T10:56:15.964Z,14.45
2022-11-18T10:58:46.464Z,13.18
2022-11-18T11:01:16.019Z,12.35
2022-11-18T11:03:44.172Z,10.32
2022-11-18T11:06:26.802Z,11.20
2022-11-18T11:08:56.329Z,11.13
2022-11-18T11:11:30.526Z,12.75
2022-11-18T11:14:15.708Z,19.08
2022-11-18T11:16:51.738Z,12.93
2022-11-18T11:19:22.907Z,15.90
2022-11-18T11:21:49.226Z,11.60
2022-11-18T11:24:15.944Z,11.70
2022-11-18T11:30:06.923Z,15.45
2022-11-18T11:32:39.105Z,13.30
2022-11-18T11:35:30.977Z,14.98
2022-11-18T11:38:31.252Z,9.02
2022-11-18T11:41:22.195Z,11.23
2022-11-18T11:44:07.228Z,14.38
2022-11-18T11:47:10.168Z,15.98
2022-11-18T11:49:45.791Z,14.95
2022-11-18T11:52:21.167Z,16.17
2022-11-18T11:55:04.602Z,13.68
2022-11-18T11:57:51.325Z,11.85
2022-11-18T12:00:19.907Z,10.93
2022-11-18T12:05:36.510Z,12.77
2022-11-18T12:08:24.285Z,16.23
2022-11-18T12:10:59.810Z,13.50
2022-11-18T12:13:48.326Z,15.77
2022-11-18T12:16:33.773Z,11.30
2022-11-18T12:19:07.686Z,11.25
2022-11-18T12:21:46.146Z,12.63
2022-11-18T12:27:06.734Z,11.55
2022-11-18T12:29:36.281Z,16.75
2022-11-18T12:32:04.112Z,12.07
2022-11-18T12:34:42.543Z,16.85
2022-11-18T12:37:24.239Z,18.70
2022-11-18T12:39:57.293Z,13.38
2022-11-18T12:43:01.944Z,14.20
2022-11-18T12:45:51.953Z,14.82
2022-11-18T12:48:27.846Z,14.57
2022-11-18T12:51:18.705Z,15.48
2022-11-18T12:53:47.594Z,15.40
2022-11-18T12:56:26.373Z,13.65
2022-11-18T12:59:02.308Z,16.15
2022-11-18T13:01:35.388Z,11.05
2022-11-18T13:04:17.496Z,15.82
2022-11-18T13:06:44.814Z,9.65
2022-11-18T13:09:18.933Z,11.82
2022-11-18T13:11:59.088Z,11.98
2022-11-18T13:14:54.948Z,14.93
2022-11-18T13:17:54.366Z,18.08
2022-11-18T13:20:23.506Z,11.57
2022-11-18T13:23:20.228Z,14.35
2022-11-18T13:25:48.829Z,20.13
2022-11-18T13:28:24.977Z,19.25
2022-11-18T13:31:00.060Z,17.80
2022-11-18T13:33:26.512Z,22.40
2022-11-18T13:35:52.963Z,21.20
2022-11-18T13:38:27.669Z,29.92
2022-11-18T13:41:13.884Z,21.83
2022-11-18T13:43:42.360Z,23.13
2022-11-18T13:46:17.590Z,26.80
2022-11-18T13:48:52.078Z,25.85
2022-11-18T13:51:18.636Z,23.05
2022-11-18T13:53:45.441Z,23.35
2022-11-18T13:56:30.288Z,24.10
2022-11-18T13:59:17.427Z,25.02
2022-11-18T14:01:46.231Z,21.35
2022-11-18T14:04:32.061Z,21.35
2022-11-18T14:07:27.840Z,27.23
2022-11-18T14:10:01.988Z,27.02
2022-11-18T14:12:35.954Z,27.35
2022-11-18T14:15:20.909Z,24.55
2022-11-18T14:17:56.200Z,23.70
2022-11-18T14:20:24.745Z,23.77
2022-11-18T14:25:26.196Z,25.13
2022-11-18T14:27:55.928Z,24.50
2022-11-18T14:30:37.826Z,27.95
2022-11-18T14:33:24.202Z,28.42
2022-11-18T14:35:55.572Z,28.35
2022-11-18T14:41:47.140Z,26.90
2022-11-18T14:46:43.473Z,27.08
2022-11-18T14:49:20.008Z,30.40
2022-11-18T14:51:46.827Z,32.95
2022-11-18T14:54:25.221Z,35.33
2022-11-18T14:56:58.289Z,30.75
2022-11-18T14:59:24.759Z,30.17
2022-11-18T15:01:51.528Z,29.17
2022-11-18T15:04:19.165Z,35.75
2022-11-18T15:06:46.808Z,40.40
2022-11-18T15:09:13.569Z,33.42
2022-11-18T15:11:40.224Z,33.38
2022-11-18T15:14:06.687Z,46.22
2022-11-18T15:16:34.407Z,34.60
2022-11-18T15:19:03.377Z,35.93
2022-11-18T15:21:29.974Z,33.45
2022-11-18T15:23:56.417Z,32.08
2022-11-18T15:26:25.797Z,31.45
2022-11-18T15:28:54.590Z,33.25
2022-11-18T15:31:22.732Z,30.88
2022-11-18T15:33:51.180Z,36.28
2022-11-18T15:36:20.131Z,31.75
2022-11-18T15:38:47.492Z,31.98
2022-11-18T15:41:25.336Z,33.55
2022-11-18T15:43:53.619Z,37.08
2022-11-18T15:46:22.052Z,35.45
2022-11-18T15:48:52.043Z,36.83
2022-11-18T15:51:19.104Z,37.95
2022-11-18T15:53:46.998Z,36.45
2022-11-18T15:56:20.518Z,38.00
2022-11-18T15:59:01.978Z,39.15
2022-11-18T16:01:35.190Z,37.65
2022-11-18T16:04:02.482Z,37.90
2022-11-18T16:06:28.983Z,38.55
2022-11-18T16:08:59.540Z,41.17
2022-11-18T16:11:45.858Z,38.97
2022-11-18T16:14:13.862Z,37.33
2022-11-18T16:16:42.313Z,39.85
2022-11-18T16:19:14.626Z,40.03
2022-11-18T16:21:46.834Z,35.25
2022-11-18T16:24:17.064Z,32.30
2022-11-18T16:26:46.708Z,29.55
2022-11-18T16:29:16.404Z,32.63
2022-11-18T16:31:50.906Z,25.60
2022-11-18T16:34:23.214Z,26.85
2022-11-18T16:36:52.721Z,21.60
2022-11-18T16:39:27.684Z,22.90
2022-11-18T16:42:02.260Z,17.17
2022-11-18T16:44:33.841Z,16.67
2022-11-18T16:47:06.519Z,14.65
2022-11-18T16:49:37.112Z,16.20
2022-11-18T16:52:03.706Z,17.90
2022-11-18T16:54:31.905Z,15.30
2022-11-18T16:56:59.222Z,16.30
2022-11-18T16:59:29.061Z,18.33
2022-11-18T17:01:57.609Z,21.17
2022-11-18T17:06:53.546Z,22.80
2022-11-18T17:09:23.076Z,18.73
2022-11-18T17:11:53.274Z,24.00
2022-11-18T17:14:20.292Z,29.70
2022-11-18T17:16:46.979Z,21.80
2022-11-18T17:19:15.967Z,17.70
2022-11-18T17:21:43.907Z,15.05
2022-11-18T17:24:13.030Z,14.85
2022-11-18T17:26:39.439Z,15.18
2022-11-18T17:29:06.233Z,14.32
2022-11-18T17:31:33.456Z,21.58
2022-11-18T17:34:04.205Z,22.42
2022-11-18T17:36:30.722Z,22.98
2022-11-18T17:38:59.419Z,20.98
2022-11-18T17:41:46.762Z,19.65
2022-11-18T17:44:15.969Z,22.08
2022-11-18T17:46:43.334Z,19.83
2022-11-18T17:49:16.423Z,21.05
2022-11-18T17:51:42.878Z,22.80
2022-11-18T17:54:09.842Z,20.45
2022-11-18T17:56:36.459Z,25.70
2022-11-18T17:59:03.025Z,21.25
2022-11-18T18:01:29.727Z,22.48
2022-11-18T18:03:56.229Z,19.60
2022-11-18T18:06:25.587Z,21.80
2022-11-18T18:08:56.403Z,21.10
2022-11-18T18:11:23.423Z,19.63
2022-11-18T18:14:08.478Z,16.30
2022-11-18T18:16:35.047Z,16.65
2022-11-18T18:19:03.215Z,15.73
2022-11-18T18:21:29.788Z,13.60
2022-11-18T18:23:56.470Z,17.45
2022-11-18T18:26:29.733Z,17.10
2022-11-18T18:28:58.725Z,18.00
2022-11-18T18:31:25.371Z,19.73
2022-11-18T18:33:51.708Z,14.57
2022-11-18T18:36:18.686Z,14.00
2022-11-18T18:38:46.245Z,15.68
2022-11-18T18:41:16.743Z,14.38
2022-11-18T18:43:43.530Z,14.05
2022-11-18T18:46:34.100Z,16.88
2022-11-18T18:49:08.872Z,14.68
2022-11-18T18:51:37.507Z,12.10
2022-11-18T18:56:31.442Z,12.88
2022-11-18T18:58:58.127Z,12.60
2022-11-18T19:01:25.653Z,10.90
2022-11-18T19:03:57.524Z,12.00
2022-11-18T19:09:17.337Z,8.82
2022-11-18T19:12:03.236Z,11.90
2022-11-18T19:14:29.678Z,11.43
2022-11-18T19:17:02.266Z,8.93
2022-11-18T19:19:50.319Z,10.85
2022-11-18T19:22:19.363Z,9.82
2022-11-18T19:24:50.606Z,9.95
2022-11-18T19:27:19.570Z,10.43
2022-11-18T19:32:12.659Z,10.73
2022-11-18T19:34:39.271Z,16.52
2022-11-18T19:37:05.588Z,6.45
2022-11-18T19:39:33.396Z,10.40
2022-11-18T19:41:59.931Z,8.80
2022-11-18T19:44:26.653Z,8.30
2022-11-18T19:46:53.078Z,7.65
2022-11-18T19:49:19.860Z,7.68
2022-11-18T19:51:46.404Z,8.20
2022-11-18T19:54:12.916Z,5.15
2022-11-18T19:56:39.243Z,8.52
2022-11-18T19:59:08.428Z,7.00
2022-11-18T20:01:36.557Z,9.05
2022-11-18T20:04:03.098Z,5.60
2022-11-18T20:06:30.015Z,5.32
2022-11-18T20:08:57.604Z,5.22
2022-11-18T20:11:24.608Z,5.73
2022-11-18T20:13:51.422Z,5.18
2022-11-18T20:16:20.782Z,5.80
2022-11-18T20:18:48.788Z,5.22
2022-11-18T20:21:19.882Z,4.47
2022-11-18T20:23:47.909Z,7.28
2022-11-18T20:26:16.905Z,7.68
2022-11-18T20:28:44.516Z,6.53
2022-11-18T20:31:15.588Z,6.47
2022-11-18T20:33:47.152Z,4.88
2022-11-18T20:36:15.506Z,6.43
2022-11-18T20:38:42.383Z,4.90
2022-11-18T20:41:11.367Z,3.67
2022-11-18T20:43:40.508Z,4.07
2022-11-18T20:46:08.358Z,4.93
2022-11-18T20:48:35.590Z,3.83
2022-11-18T20:51:16.630Z,5.65
2022-11-18T20:53:43.888Z,3.88
2022-11-18T20:56:13.382Z,3.60
2022-11-18T20:58:40.288Z,4.50
2022-11-18T21:01:14.590Z,3.35
2022-11-18T21:03:43.557Z,4.05
2022-11-18T21:06:14.629Z,2.92
2022-11-18T21:08:43.699Z,4.70
2022-11-18T21:11:12.485Z,5.18
2022-11-18T21:13:58.571Z,5.35
2022-11-18T21:16:26.105Z,2.95
2022-11-18T21:18:52.552Z,3.47
2022-11-18T21:21:37.582Z,3.80
2022-11-18T21:24:04.661Z,3.10
2022-11-18T21:26:33.122Z,3.13
2022-11-18T21:31:28.998Z,2.72
2022-11-18T21:33:57.453Z,3.25
2022-11-18T21:36:25.931Z,3.63
2022-11-18T21:41:19.737Z,2.47
2022-11-18T21:46:34.758Z,3.50
2022-11-18T21:49:02.050Z,3.22
2022-11-18T21:51:28.691Z,3.05
2022-11-18T21:53:55.217Z,3.10
2022-11-18T21:56:25.125Z,3.45
2022-11-18T21:58:52.566Z,5.65
2022-11-18T22:01:21.868Z,4.75
2022-11-18T22:03:55.524Z,5.18
2022-11-18T22:06:24.454Z,5.38
2022-11-18T22:08:52.143Z,4.13
2022-11-18T22:11:20.348Z,3.03
2022-11-18T22:13:47.167Z,3.67
2022-11-18T22:16:18.163Z,3.60
2022-11-18T22:18:53.058Z,3.22
2022-11-18T22:21:23.226Z,2.78
2022-11-18T22:23:49.774Z,4.38
2022-11-18T22:26:19.319Z,3.78
2022-11-18T22:28:46.352Z,4.20
2022-11-18T22:31:15.331Z,3.63
2022-11-18T22:33:42.915Z,4.50
2022-11-18T22:36:13.554Z,5.90
2022-11-18T22:38:41.812Z,4.75
2022-11-18T22:41:30.996Z,5.97
2022-11-18T22:44:00.384Z,6.60
2022-11-18T22:46:30.984Z,7.35
2022-11-18T22:48:58.240Z,6.40
2022-11-18T22:51:25.768Z,6.65
2022-11-18T22:54:09.720Z,10.37
2022-11-18T22:56:40.411Z,7.60
2022-11-18T22:59:06.789Z,10.18
2022-11-18T23:01:33.176Z,7.75
2022-11-18T23:03:59.837Z,8.68
2022-11-18T23:06:26.225Z,8.02
2022-11-18T23:08:52.755Z,9.50
2022-11-18T23:11:38.331Z,10.90
2022-11-18T23:14:07.407Z,9.88
2022-11-18T23:16:36.704Z,10.82
2022-11-18T23:19:05.686Z,12.55
2022-11-18T23:21:32.070Z,10.25
2022-11-18T23:23:58.493Z,10.75
2022-11-18T23:26:25.798Z,10.45
2022-11-18T23:28:53.030Z,11.68
2022-11-18T23:31:21.154Z,12.02
2022-11-18T23:33:47.991Z,10.60
2022-11-18T23:36:16.926Z,11.13
2022-11-18T23:38:43.594Z,13.25
2022-11-18T23:41:12.680Z,11.27
2022-11-18T23:43:39.990Z,11.07
2022-11-18T23:46:07.823Z,12.65
2022-11-18T23:48:36.497Z,11.48
2022-11-18T23:51:12.316Z,13.27
2022-11-18T23:53:39.662Z,12.50
2022-11-18T23:56:12.060Z,12.98
2022-11-18T23:58:42.132Z,13.38
